Wetterdaten: Woche 25.05.09 - 31.05.09 (KW22)
Datum Zeit Temperatur Luftfeuchte Luftdruck Niederschlag Windrichtung Wind
25.05.2009 00:00 16,9 C 92 % 1017,3 hPa 0,0 l/m N-NW 2,0 km/h (1 Bft)
25.05.2009 01:00 16,6 C 94 % 1017,0 hPa 0,0 l/m N-NW 3,7 km/h (1 Bft)
25.05.2009 02:00 16,2 C 94 % 1016,5 hPa 0,0 l/m N-NW 2,7 km/h (1 Bft)
25.05.2009 03:00 15,6 C 95 % 1016,0 hPa 0,0 l/m N-NW 2,7 km/h (1 Bft)
25.05.2009 04:00 14,9 C 96 % 1015,6 hPa 0,0 l/m N-NW 1,6 km/h (1 Bft)
25.05.2009 05:00 14,3 C 96 % 1015,7 hPa 0,0 l/m N 0,9 km/h (0 Bft)
25.05.2009 06:00 14,4 C 96 % 1015,7 hPa 0,0 l/m N-NW 2,3 km/h (1 Bft)
25.05.2009 07:00 16,7 C 92 % 1015,9 hPa 0,0 l/m N-NW 3,6 km/h (1 Bft)
25.05.2009 08:00 19,8 C 73 % 1015,9 hPa 0,0 l/m N-NW 2,8 km/h (1 Bft)
25.05.2009 09:00 22,2 C 56 % 1015,9 hPa 0,0 l/m SW 5,1 km/h (1 Bft)
25.05.2009 10:00 23,8 C 51 % 1015,8 hPa 0,0 l/m W-SW 6,3 km/h (2 Bft)
25.05.2009 11:00 25,3 C 50 % 1015,8 hPa 0,0 l/m W-SW 5,9 km/h (2 Bft)
25.05.2009 12:00 26,9 C 48 % 1015,6 hPa 0,0 l/m SW 8,3 km/h (2 Bft)
25.05.2009 13:00 28,3 C 43 % 1015,1 hPa 0,0 l/m O-SO 6,4 km/h (2 Bft)
25.05.2009 14:00 29,1 C 36 % 1014,6 hPa 0,0 l/m SO 7,5 km/h (2 Bft)
25.05.2009 15:00 29,9 C 32 % 1014,0 hPa 0,0 l/m O-SO 7,5 km/h (2 Bft)
25.05.2009 16:00 30,5 C 31 % 1013,3 hPa 0,0 l/m N-NO 8,3 km/h (2 Bft)
25.05.2009 17:00 29,3 C 40 % 1012,6 hPa 0,0 l/m N-NO 10,8 km/h (2 Bft)
25.05.2009 18:00 27,1 C 54 % 1012,0 hPa 0,0 l/m N-NO 7,6 km/h (2 Bft)
25.05.2009 19:00 26,8 C 51 % 1011,6 hPa 0,0 l/m NO 7,6 km/h (2 Bft)
25.05.2009 20:00 24,3 C 65 % 1011,6 hPa 0,0 l/m N-NO 3,5 km/h (1 Bft)
25.05.2009 21:00 22,4 C 72 % 1011,5 hPa 0,0 l/m N-NW 5,2 km/h (1 Bft)
25.05.2009 22:00 21,0 C 78 % 1011,4 hPa 0,0 l/m N-NW 4,1 km/h (1 Bft)
25.05.2009 23:00 19,7 C 82 % 1010,9 hPa 0,0 l/m N-NW 4,1 km/h (1 Bft)
26.05.2009 00:00 19,0 C 84 % 1010,4 hPa 0,0 l/m N-NW 3,3 km/h (1 Bft)
26.05.2009 01:00 18,2 C 87 % 1010,1 hPa 0,0 l/m N 1,9 km/h (1 Bft)
26.05.2009 02:00 17,2 C 90 % 1009,7 hPa 0,0 l/m N 0,1 km/h (0 Bft)
26.05.2009 03:00 16,2 C 93 % 1009,4 hPa 0,0 l/m N 0,0 km/h (0 Bft)
26.05.2009 04:00 15,6 C 94 % 1009,2 hPa 0,0 l/m N 0,1 km/h (0 Bft)
26.05.2009 05:00 14,9 C 96 % 1009,1 hPa 0,0 l/m N 0,3 km/h (0 Bft)
26.05.2009 06:00 15,0 C 95 % 1009,4 hPa 0,0 l/m N 0,8 km/h (0 Bft)
26.05.2009 07:00 17,3 C 85 % 1010,5 hPa 0,2 l/m NW 15,9 km/h (3 Bft)
26.05.2009 08:00 19,1 C 74 % 1011,4 hPa 2,2 l/m W-NW 14,2 km/h (3 Bft)
26.05.2009 09:00 17,1 C 88 % 1011,5 hPa 0,4 l/m W-NW 6,8 km/h (2 Bft)
26.05.2009 10:00 19,2 C 85 % 1011,9 hPa 0,0 l/m S-SW 14,2 km/h (3 Bft)
26.05.2009 11:00 21,7 C 73 % 1011,8 hPa 0,0 l/m SW 15,0 km/h (3 Bft)
26.05.2009 12:00 22,6 C 68 % 1011,4 hPa 0,0 l/m SW 10,2 km/h (2 Bft)
26.05.2009 13:00 23,3 C 63 % 1010,2 hPa 0,0 l/m N-NO 7,6 km/h (2 Bft)
26.05.2009 14:00 24,5 C 60 % 1009,6 hPa 0,0 l/m NO 10,5 km/h (2 Bft)
26.05.2009 15:00 25,2 C 55 % 1008,8 hPa 0,0 l/m NO 16,0 km/h (3 Bft)
26.05.2009 16:00 22,8 C 57 % 1008,7 hPa 8,0 l/m N 31,2 km/h (5 Bft)
26.05.2009 17:00 13,9 C 91 % 1010,1 hPa 2,8 l/m W-NW 27,6 km/h (4 Bft)
26.05.2009 18:00 13,8 C 93 % 1013,0 hPa 0,8 l/m S-SW 16,0 km/h (3 Bft)
26.05.2009 19:00 13,7 C 96 % 1013,6 hPa 3,6 l/m W-SW 10,6 km/h (2 Bft)
26.05.2009 20:00 13,9 C 96 % 1013,8 hPa 4,2 l/m W 4,5 km/h (1 Bft)
26.05.2009 21:00 14,0 C 97 % 1014,5 hPa 6,8 l/m SW 4,3 km/h (1 Bft)
26.05.2009 22:00 13,6 C 96 % 1015,7 hPa 3,4 l/m SW 12,9 km/h (3 Bft)
26.05.2009 23:00 13,3 C 96 % 1016,2 hPa 0,2 l/m SW 15,3 km/h (3 Bft)
27.05.2009 00:00 13,0 C 96 % 1017,0 hPa 1,2 l/m W 18,8 km/h (3 Bft)
27.05.2009 01:00 12,2 C 95 % 1017,8 hPa 3,8 l/m W-NW 18,5 km/h (3 Bft)
27.05.2009 02:00 11,5 C 94 % 1018,8 hPa 0,4 l/m W 15,0 km/h (3 Bft)
27.05.2009 03:00 11,1 C 94 % 1019,7 hPa 0,2 l/m W-NW 10,2 km/h (2 Bft)
27.05.2009 04:00 10,7 C 95 % 1020,6 hPa 0,2 l/m W 9,7 km/h (2 Bft)
27.05.2009 05:00 9,8 C 93 % 1021,8 hPa 1,4 l/m NW 15,7 km/h (3 Bft)
27.05.2009 06:00 8,3 C 92 % 1023,0 hPa 0,0 l/m N-NO 9,5 km/h (2 Bft)
27.05.2009 07:00 9,0 C 92 % 1023,8 hPa 0,0 l/m N 9,5 km/h (2 Bft)
27.05.2009 08:00 10,0 C 85 % 1024,8 hPa 0,0 l/m N-NO 11,8 km/h (2 Bft)
27.05.2009 09:00 11,1 C 74 % 1025,5 hPa 0,0 l/m NO 10,1 km/h (2 Bft)
27.05.2009 10:00 11,2 C 71 % 1026,0 hPa 0,0 l/m NO 6,4 km/h (2 Bft)
27.05.2009 11:00 12,8 C 67 % 1025,8 hPa 0,0 l/m SW 8,4 km/h (2 Bft)
27.05.2009 12:00 13,1 C 65 % 1025,6 hPa 0,0 l/m W-SW 8,6 km/h (2 Bft)
27.05.2009 13:00 13,5 C 63 % 1025,4 hPa 0,0 l/m W-SW 10,2 km/h (2 Bft)
27.05.2009 14:00 14,7 C 57 % 1025,3 hPa 0,0 l/m N-NO 9,9 km/h (2 Bft)
27.05.2009 15:00 15,1 C 53 % 1025,1 hPa 0,0 l/m SW 10,7 km/h (2 Bft)
27.05.2009 16:00 15,7 C 52 % 1025,0 hPa 0,0 l/m W-SW 14,2 km/h (3 Bft)
27.05.2009 17:00 15,3 C 53 % 1024,9 hPa 0,0 l/m W 8,2 km/h (2 Bft)
27.05.2009 18:00 15,0 C 57 % 1024,9 hPa 0,0 l/m SW 8,4 km/h (2 Bft)
27.05.2009 19:00 14,4 C 59 % 1024,8 hPa 0,0 l/m W-SW 5,3 km/h (1 Bft)
27.05.2009 20:00 13,2 C 68 % 1024,8 hPa 0,0 l/m W-SW 3,1 km/h (1 Bft)
27.05.2009 21:00 11,6 C 72 % 1025,0 hPa 0,0 l/m W 4,9 km/h (1 Bft)
27.05.2009 22:00 10,4 C 79 % 1025,3 hPa 0,0 l/m S-SW 1,9 km/h (1 Bft)
27.05.2009 23:00 10,6 C 78 % 1025,5 hPa 0,0 l/m W-SW 4,9 km/h (1 Bft)
28.05.2009 00:00 11,2 C 75 % 1025,5 hPa 0,0 l/m W-SW 3,7 km/h (1 Bft)
28.05.2009 01:00 11,1 C 77 % 1025,8 hPa 0,0 l/m NW 4,6 km/h (1 Bft)
28.05.2009 02:00 11,1 C 78 % 1026,1 hPa 0,0 l/m W-NW 4,0 km/h (1 Bft)
28.05.2009 03:00 10,2 C 87 % 1026,1 hPa 0,0 l/m W 3,2 km/h (1 Bft)
28.05.2009 04:00 9,9 C 89 % 1026,1 hPa 0,0 l/m W 3,2 km/h (1 Bft)
28.05.2009 05:00 9,9 C 87 % 1026,4 hPa 0,0 l/m N 2,0 km/h (1 Bft)
28.05.2009 06:00 10,3 C 85 % 1026,6 hPa 0,0 l/m SW 4,3 km/h (1 Bft)
28.05.2009 07:00 11,3 C 80 % 1026,7 hPa 0,0 l/m W-SW 11,0 km/h (2 Bft)
28.05.2009 08:00 12,3 C 73 % 1026,8 hPa 0,0 l/m W-SW 13,3 km/h (3 Bft)
28.05.2009 09:00 13,3 C 67 % 1026,9 hPa 0,0 l/m W-SW 21,8 km/h (4 Bft)
28.05.2009 10:00 14,7 C 63 % 1027,2 hPa 0,0 l/m SW 20,4 km/h (4 Bft)
28.05.2009 11:00 14,8 C 65 % 1027,2 hPa 0,0 l/m W-NW 18,4 km/h (3 Bft)
28.05.2009 12:00 16,0 C 64 % 1027,1 hPa 0,0 l/m W-NW 17,6 km/h (3 Bft)
28.05.2009 13:00 16,2 C 63 % 1027,1 hPa 0,0 l/m W 16,2 km/h (3 Bft)
28.05.2009 14:00 16,9 C 61 % 1026,8 hPa 0,0 l/m W-NW 15,2 km/h (3 Bft)
28.05.2009 15:00 17,6 C 59 % 1026,5 hPa 0,0 l/m W-SW 18,1 km/h (3 Bft)
28.05.2009 16:00 16,5 C 65 % 1026,6 hPa 0,0 l/m W-NW 15,8 km/h (3 Bft)
28.05.2009 17:00 16,7 C 66 % 1026,8 hPa 0,0 l/m W 12,3 km/h (3 Bft)
28.05.2009 18:00 16,7 C 64 % 1026,9 hPa 0,0 l/m W-NW 17,7 km/h (3 Bft)
28.05.2009 19:00 16,4 C 65 % 1027,0 hPa 0,0 l/m W-NW 14,8 km/h (3 Bft)
28.05.2009 20:00 15,4 C 70 % 1027,1 hPa 0,0 l/m W-NW 13,7 km/h (3 Bft)
28.05.2009 21:00 14,6 C 74 % 1027,4 hPa 0,0 l/m W-NW 10,5 km/h (2 Bft)
28.05.2009 22:00 14,0 C 77 % 1027,7 hPa 0,0 l/m W-NW 11,1 km/h (2 Bft)
28.05.2009 23:00 13,7 C 79 % 1027,7 hPa 0,0 l/m W 3,7 km/h (1 Bft)
29.05.2009 00:00 13,5 C 81 % 1027,6 hPa 0,0 l/m NW 6,4 km/h (2 Bft)
29.05.2009 01:00 12,1 C 87 % 1027,8 hPa 0,2 l/m N-NO 11,0 km/h (2 Bft)
29.05.2009 02:00 11,8 C 92 % 1027,3 hPa 0,0 l/m N-NW 2,9 km/h (1 Bft)
29.05.2009 03:00 11,5 C 93 % 1027,1 hPa 0,0 l/m N-NW 4,1 km/h (1 Bft)
29.05.2009 04:00 10,9 C 95 % 1026,9 hPa 0,0 l/m N 4,7 km/h (1 Bft)
29.05.2009 05:00 11,2 C 92 % 1027,0 hPa 0,0 l/m N-NO 7,1 km/h (2 Bft)
29.05.2009 06:00 10,9 C 89 % 1027,2 hPa 0,0 l/m N-NO 8,3 km/h (2 Bft)
29.05.2009 07:00 11,4 C 81 % 1027,5 hPa 0,0 l/m NO 12,8 km/h (3 Bft)
29.05.2009 08:00 12,2 C 63 % 1027,5 hPa 0,0 l/m NO 11,1 km/h (2 Bft)
29.05.2009 09:00 13,2 C 52 % 1027,5 hPa 0,0 l/m N-NO 13,4 km/h (3 Bft)
29.05.2009 10:00 14,2 C 42 % 1027,3 hPa 0,0 l/m N-NO 15,8 km/h (3 Bft)
29.05.2009 11:00 15,4 C 34 % 1026,9 hPa 0,0 l/m N-NO 17,3 km/h (3 Bft)
29.05.2009 12:00 16,4 C 33 % 1026,5 hPa 0,0 l/m N-NO 18,6 km/h (3 Bft)
29.05.2009 13:00 17,3 C 29 % 1026,1 hPa 0,0 l/m O 17,7 km/h (3 Bft)
29.05.2009 14:00 17,5 C 31 % 1025,6 hPa 0,0 l/m O-NO 19,4 km/h (3 Bft)
29.05.2009 15:00 17,5 C 27 % 1025,2 hPa 0,0 l/m NO 20,1 km/h (4 Bft)
29.05.2009 16:00 17,3 C 31 % 1024,9 hPa 0,0 l/m O-NO 23,7 km/h (4 Bft)
29.05.2009 17:00 16,4 C 36 % 1024,9 hPa 0,0 l/m O-NO 21,4 km/h (4 Bft)
29.05.2009 18:00 15,7 C 39 % 1025,0 hPa 0,0 l/m O-NO 22,5 km/h (4 Bft)
29.05.2009 19:00 14,6 C 46 % 1025,0 hPa 0,0 l/m NO 17,6 km/h (3 Bft)
29.05.2009 20:00 13,3 C 53 % 1025,1 hPa 0,0 l/m NO 10,9 km/h (2 Bft)
29.05.2009 21:00 12,4 C 56 % 1025,3 hPa 0,0 l/m NO 8,6 km/h (2 Bft)
29.05.2009 22:00 11,0 C 64 % 1025,3 hPa 0,0 l/m NO 2,9 km/h (1 Bft)
29.05.2009 23:00 9,0 C 78 % 1025,1 hPa 0,0 l/m N 0,3 km/h (0 Bft)
30.05.2009 00:00 8,2 C 81 % 1024,8 hPa 0,0 l/m N 2,3 km/h (1 Bft)
30.05.2009 01:00 7,6 C 84 % 1024,4 hPa 0,0 l/m N 1,6 km/h (1 Bft)
30.05.2009 02:00 7,5 C 85 % 1024,1 hPa 0,0 l/m N 2,1 km/h (1 Bft)
30.05.2009 03:00 7,3 C 87 % 1023,6 hPa 0,0 l/m N 1,6 km/h (1 Bft)
30.05.2009 04:00 6,8 C 89 % 1023,0 hPa 0,0 l/m N 1,2 km/h (1 Bft)
30.05.2009 05:00 6,3 C 91 % 1022,7 hPa 0,0 l/m N 2,8 km/h (1 Bft)
30.05.2009 06:00 7,4 C 87 % 1022,6 hPa 0,0 l/m O-NO 5,9 km/h (2 Bft)
30.05.2009 07:00 9,5 C 80 % 1022,5 hPa 0,0 l/m O-NO 13,7 km/h (3 Bft)
30.05.2009 08:00 11,5 C 73 % 1022,2 hPa 0,0 l/m NO 19,2 km/h (3 Bft)
30.05.2009 09:00 12,8 C 68 % 1022,1 hPa 0,0 l/m O-NO 21,7 km/h (4 Bft)
30.05.2009 10:00 14,0 C 62 % 1021,9 hPa 0,0 l/m O-NO 24,1 km/h (4 Bft)
30.05.2009 11:00 15,4 C 54 % 1021,5 hPa 0,0 l/m O-NO 24,0 km/h (4 Bft)
30.05.2009 12:00 16,5 C 52 % 1021,1 hPa 0,0 l/m O-SO 24,0 km/h (4 Bft)
30.05.2009 13:00 17,0 C 52 % 1020,7 hPa 0,0 l/m O-NO 25,5 km/h (4 Bft)
30.05.2009 14:00 17,7 C 48 % 1020,1 hPa 0,0 l/m NO 27,1 km/h (4 Bft)
30.05.2009 15:00 18,1 C 46 % 1019,4 hPa 0,0 l/m O-NO 25,1 km/h (4 Bft)
30.05.2009 16:00 18,7 C 43 % 1018,9 hPa 0,0 l/m NO 23,2 km/h (4 Bft)
30.05.2009 17:00 18,6 C 45 % 1018,5 hPa 0,0 l/m NO 22,5 km/h (4 Bft)
30.05.2009 18:00 18,1 C 45 % 1018,2 hPa 0,0 l/m NO 22,5 km/h (4 Bft)
30.05.2009 19:00 16,7 C 53 % 1018,3 hPa 0,0 l/m O-NO 23,6 km/h (4 Bft)
30.05.2009 20:00 15,2 C 58 % 1018,3 hPa 0,0 l/m O-NO 16,4 km/h (3 Bft)
30.05.2009 21:00 13,5 C 67 % 1018,7 hPa 0,0 l/m NO 5,7 km/h (1 Bft)
30.05.2009 22:00 12,7 C 71 % 1018,8 hPa 0,0 l/m NO 7,9 km/h (2 Bft)
30.05.2009 23:00 12,0 C 73 % 1018,8 hPa 0,0 l/m NO 7,4 km/h (2 Bft)
31.05.2009 00:00 10,6 C 79 % 1018,6 hPa 0,0 l/m O-NO 4,4 km/h (1 Bft)
31.05.2009 01:00 10,0 C 82 % 1018,3 hPa 0,0 l/m N-NO 5,5 km/h (1 Bft)
31.05.2009 02:00 10,0 C 84 % 1018,2 hPa 0,0 l/m N-NO 8,8 km/h (2 Bft)
31.05.2009 03:00 9,8 C 86 % 1017,9 hPa 0,0 l/m NO 7,0 km/h (2 Bft)
31.05.2009 04:00 9,2 C 90 % 1017,8 hPa 0,0 l/m N-NO 5,9 km/h (2 Bft)
31.05.2009 05:00 9,0 C 93 % 1018,0 hPa 0,0 l/m N-NO 7,9 km/h (2 Bft)
31.05.2009 06:00 9,8 C 90 % 1018,3 hPa 0,0 l/m O-NO 14,6 km/h (3 Bft)
31.05.2009 07:00 10,5 C 86 % 1018,4 hPa 0,0 l/m O-NO 10,9 km/h (2 Bft)
31.05.2009 08:00 11,2 C 82 % 1018,5 hPa 0,0 l/m NO 12,8 km/h (3 Bft)
31.05.2009 09:00 11,5 C 80 % 1018,9 hPa 0,0 l/m NO 15,8 km/h (3 Bft)
31.05.2009 10:00 12,1 C 74 % 1019,2 hPa 0,0 l/m O-SO 18,9 km/h (3 Bft)
31.05.2009 11:00 13,6 C 68 % 1019,2 hPa 0,0 l/m NO 20,0 km/h (4 Bft)
31.05.2009 12:00 15,0 C 61 % 1019,0 hPa 0,0 l/m O-NO 20,4 km/h (4 Bft)
31.05.2009 13:00 15,8 C 55 % 1018,8 hPa 0,0 l/m NO 22,2 km/h (4 Bft)
31.05.2009 14:00 17,1 C 49 % 1018,4 hPa 0,0 l/m O-NO 23,3 km/h (4 Bft)
31.05.2009 15:00 17,8 C 46 % 1017,9 hPa 0,0 l/m NO 23,8 km/h (4 Bft)
31.05.2009 16:00 17,9 C 45 % 1017,8 hPa 0,0 l/m O-NO 23,6 km/h (4 Bft)
31.05.2009 17:00 17,7 C 42 % 1017,6 hPa 0,0 l/m NO 21,8 km/h (4 Bft)
31.05.2009 18:00 17,1 C 39 % 1017,5 hPa 0,0 l/m O-NO 21,0 km/h (4 Bft)
31.05.2009 19:00 16,5 C 41 % 1017,5 hPa 0,0 l/m O-NO 16,1 km/h (3 Bft)
31.05.2009 20:00 15,3 C 47 % 1017,9 hPa 0,0 l/m O-NO 10,6 km/h (2 Bft)
31.05.2009 21:00 12,6 C 59 % 1018,3 hPa 0,0 l/m N-NO 4,4 km/h (1 Bft)
31.05.2009 22:00 10,2 C 71 % 1018,8 hPa 0,0 l/m N-NO 2,1 km/h (1 Bft)
31.05.2009 23:00 9,3 C 76 % 1018,7 hPa 0,0 l/m N-NO 2,9 km/h (1 Bft)
Min-Datum _ 30.05.09 29.05.09 26.05.09 - - 25.05.09
_ Min-Zeit 05:30 15:25 16:30 - - 00:20
Minimum _ 6,2 C 24 % 1007,3 hPa - - 0,0 km/h (0 Bft)
Max-Datum _ 25.05.09 25.05.09 29.05.09 26.05.09 - 26.05.09
_ Max-Zeit 16:50 04:55 01:05 16:55 - 16:50
Maximum _ 30,9 C 97 % 1028,1 hPa 8,0 l/m - 75,6 km/h
N-NO (9 Bft)
Durchschnitt _ 15,0 C 70 % 1020,2 hPa #40,0 l/m NO 11,0 km/h (2 Bft)